Archival Weather

Southern Wisconsin Rgnl

Janesville, Wisconsin (KJVL)

Report from: Tuesday, June 6, 2023 2:55 AM CDT
Current time: Monday, June 17, 2024 6:51 AM CDT

Current weather – Weather history – Daily summaries
Weather forecast

Temperature17.0°C (62.6°F)
Dew point8.0°C (46.4°F)
Winds Calm
Visibility10 mi. (16.1 km)
Clouds Sky clear
Altimeter30.01 in.Hg (1016 mB)
Relative humidity55 %
Density altitude289 ft. (88 m)
Remarks Fully automated report
Automated weather observing station with precipitation discriminator
Flight conditions Visual Meteorological Conditions
Raw dataKJVL 060755Z AUTO 00000KT 10SM CLR 17/08 A3001 RMK AO2
An error has occurred. This application may no longer respond until reloaded. Reload 🗙